Time;durP1;ratioP1;P1;durP2;ratioP2;P2;SDS_P1;SDS_P2;PMS_P1;PMS_P2;Temp;Humidity;BMP_temperature;BMP_pressure;BME280_temperature;BME280_humidity;BME280_pressure;Samples;Min_cycle;Max_cycle;Signal;HPM_P1;HPM_P2
2022/12/18 00:00:50;;;;;;;78.00;72.00;;;;;;;6.29;100.00;101958.34;5096002;28;20053;-84
2022/12/18 00:03:17;;;;;;;75.88;69.78;;;;;;;6.27;100.00;101951.59;5095724;28;20101;-84
2022/12/18 00:05:48;;;;;;;77.28;71.00;;;;;;;6.44;100.00;101956.06;5096459;28;20056;-84
2022/12/18 00:08:15;;;;;;;74.00;68.00;;;;;;;5.57;100.00;101961.66;5095942;28;20044;-84
2022/12/18 00:10:42;;;;;;;76.45;69.75;;;;;;;5.59;100.00;101954.47;5095949;28;20086;-84
2022/12/18 00:13:09;;;;;;;75.75;69.40;;;;;;;5.55;100.00;101963.63;5095784;28;20056;-84
2022/12/18 00:15:37;;;;;;;71.85;65.65;;;;;;;5.45;100.00;101955.75;5095751;28;20489;-84
2022/12/18 00:18:04;;;;;;;73.07;67.15;;;;;;;5.58;100.00;101974.72;5095778;28;20059;-85
2022/12/18 00:20:32;;;;;;;74.03;67.60;;;;;;;5.53;100.00;101976.94;5096162;28;20040;-86
2022/12/18 00:22:58;;;;;;;68.40;62.17;;;;;;;5.80;100.00;101976.19;5095821;28;20190;-88
2022/12/18 00:25:25;;;;;;;69.60;63.03;;;;;;;5.55;100.00;101974.19;5095705;28;20059;-85
2022/12/18 00:27:52;;;;;;;77.32;70.70;;;;;;;5.59;100.00;101972.91;5095332;28;20051;-87
2022/12/18 00:30:19;;;;;;;79.45;72.75;;;;;;;5.54;100.00;101988.31;5095722;28;20048;-84
2022/12/18 00:32:47;;;;;;;76.32;69.93;;;;;;;5.39;100.00;101994.03;5095409;28;20397;-84
2022/12/18 00:35:14;;;;;;;75.97;69.20;;;;;;;5.27;100.00;102001.25;5094785;28;20052;-87
2022/12/18 00:37:40;;;;;;;77.30;70.82;;;;;;;5.31;100.00;102014.16;5095534;28;20055;-85
2022/12/18 00:40:09;;;;;;;71.22;64.97;;;;;;;5.43;100.00;102007.75;5095416;28;20073;-84
2022/12/18 00:45:20;;;;;;;72.78;66.38;;;;;;;5.13;100.00;102017.47;5095414;28;20105;-84
2022/12/18 00:47:48;;;;;;;76.43;69.80;;;;;;;5.12;100.00;102021.09;5095024;28;20040;-87
2022/12/18 00:50:14;;;;;;;72.78;66.35;;;;;;;5.07;100.00;102028.56;5095539;28;20109;-84
2022/12/18 00:52:41;;;;;;;71.82;65.32;;;;;;;5.16;100.00;102026.91;5094952;28;20550;-84
2022/12/18 00:55:08;;;;;;;73.85;66.88;;;;;;;5.11;100.00;102032.56;5095452;28;20055;-85
2022/12/18 00:57:35;;;;;;;72.60;66.20;;;;;;;5.12;100.00;102025.53;5094962;28;20560;-85
2022/12/18 01:02:43;;;;;;;74.07;67.07;;;;;;;5.30;100.00;102029.13;5115192;28;20048;-92
2022/12/18 01:05:13;;;;;;;75.35;68.55;;;;;;;5.29;100.00;102032.72;5118736;28;20024;-92
2022/12/18 01:07:40;;;;;;;80.50;73.22;;;;;;;4.96;100.00;102026.06;5118129;28;20037;-92
2022/12/18 01:10:10;;;;;;;75.28;68.72;;;;;;;4.96;100.00;102019.00;5118332;28;20023;-92
2022/12/18 01:12:37;;;;;;;77.07;70.30;;;;;;;4.94;100.00;102028.84;5118066;28;20043;-92
2022/12/18 01:15:05;;;;;;;77.32;70.40;;;;;;;5.16;100.00;102043.53;5118429;28;20044;-92
2022/12/18 01:17:32;;;;;;;76.20;69.53;;;;;;;5.01;100.00;102034.38;5118304;28;20073;-92
2022/12/18 01:19:59;;;;;;;73.47;67.10;;;;;;;4.77;100.00;102038.22;5116615;28;20060;-93
2022/12/18 01:22:27;;;;;;;79.90;72.97;;;;;;;5.22;100.00;102047.44;5118124;28;20040;-92
2022/12/18 01:24:54;;;;;;;74.68;68.28;;;;;;;4.79;100.00;102049.47;5118067;28;20052;-94
2022/12/18 01:27:21;;;;;;;77.45;70.70;;;;;;;4.72;100.00;102037.81;5117886;28;20050;-92
2022/12/18 01:29:48;;;;;;;71.70;65.40;;;;;;;4.79;100.00;102057.34;5117733;28;20060;-92
2022/12/18 01:32:15;;;;;;;73.28;66.70;;;;;;;4.66;100.00;102053.28;5117924;28;20028;-92
2022/12/18 01:34:42;;;;;;;76.47;69.88;;;;;;;4.63;100.00;102058.81;5117574;28;20054;-93
2022/12/18 01:37:09;;;;;;;78.80;72.10;;;;;;;4.62;100.00;102065.88;5116897;28;20054;-92
2022/12/18 01:39:38;;;;;;;75.32;68.55;;;;;;;4.54;100.00;102058.69;5116739;28;20035;-93
2022/12/18 01:42:10;;;;;;;75.40;68.82;;;;;;;4.48;100.00;102060.97;5118565;28;20043;-92
2022/12/18 01:45:00;;;;;;;77.03;70.35;;;;;;;4.64;100.00;102066.59;5119010;28;20024;-92
2022/12/18 01:47:32;;;;;;;73.25;66.25;;;;;;;4.65;100.00;102067.44;5120555;28;20057;-92
2022/12/18 01:50:02;;;;;;;73.88;67.18;;;;;;;4.58;100.00;102073.22;5123163;28;20036;-92
2022/12/18 01:52:32;;;;;;;77.28;70.45;;;;;;;4.65;100.00;102072.69;5122834;28;20051;-92
2022/12/18 01:55:03;;;;;;;77.75;70.75;;;;;;;4.63;100.00;102072.84;5123094;28;20047;-93
2022/12/18 01:57:30;;;;;;;77.60;70.78;;;;;;;4.72;100.00;102073.81;5122963;28;20111;-90
2022/12/18 02:00:01;;;;;;;75.60;69.15;;;;;;;4.50;100.00;102075.69;5122986;28;20059;-90
2022/12/18 02:02:29;;;;;;;77.45;70.68;;;;;;;4.50;100.00;102073.03;5122746;28;20050;-94
2022/12/18 02:04:56;;;;;;;70.63;64.57;;;;;;;4.80;100.00;102066.91;5123048;28;20066;-92
2022/12/18 02:07:30;;;;;;;77.82;71.32;;;;;;;4.74;100.00;102075.34;5122946;28;20032;-91
2022/12/18 02:10:05;;;;;;;72.10;65.63;;;;;;;4.74;100.00;102072.72;5122808;28;20036;-93
2022/12/18 02:12:43;;;;;;;72.53;66.35;;;;;;;4.91;100.00;102079.13;5122935;28;20039;-91
2022/12/18 02:15:17;;;;;;;69.63;63.80;;;;;;;4.62;100.00;102080.84;5122853;28;20082;-93
2022/12/18 02:17:48;;;;;;;70.68;64.45;;;;;;;4.63;100.00;102079.88;5122575;28;20028;-92
2022/12/18 02:20:21;;;;;;;71.85;66.18;;;;;;;5.32;100.00;102087.78;5122639;28;20032;-92
2022/12/18 02:22:54;;;;;;;;;;;;;;;4.46;100.00;102079.56;5122917;28;20073;-91
2022/12/18 02:25:40;;;;;;;72.82;66.00;;;;;;;4.69;100.00;102087.22;5122619;28;19910;-92
2022/12/18 02:28:12;;;;;;;63.85;58.13;;;;;;;4.77;100.00;102082.97;5122482;28;20058;-92
2022/12/18 02:30:40;;;;;;;76.32;68.95;;;;;;;4.56;100.00;102100.63;5122395;28;20036;-92
2022/12/18 02:33:09;;;;;;;66.95;60.67;;;;;;;4.38;100.00;102115.38;5122499;28;20032;-93
2022/12/18 02:35:39;;;;;;;64.07;58.35;;;;;;;4.44;100.00;102114.84;5122526;28;20100;-93
2022/12/18 02:38:07;;;;;;;64.75;58.80;;;;;;;4.33;100.00;102118.41;5122319;28;20070;-92
2022/12/18 02:40:34;;;;;;;64.93;58.90;;;;;;;4.49;100.00;102133.72;5122343;28;20040;-93
2022/12/18 02:43:07;;;;;;;71.07;64.70;;;;;;;4.09;100.00;102139.72;5122402;28;20056;-92
2022/12/18 02:45:35;;;;;;;70.03;64.35;;;;;;;4.69;100.00;102134.63;5122291;28;20035;-91
2022/12/18 02:48:03;;;;;;;71.45;65.13;;;;;;;4.38;100.00;102133.78;5122003;28;20054;-92
2022/12/18 02:50:36;;;;;;;72.13;65.75;;;;;;;4.74;100.00;102132.41;5122001;28;20070;-91
2022/12/18 02:53:13;;;;;;;73.05;66.45;;;;;;;4.33;100.00;102140.28;5122067;28;20058;-92
2022/12/18 02:55:54;;;;;;;71.43;64.63;;;;;;;4.22;100.00;102152.66;5121996;28;20035;-92
2022/12/18 02:58:31;;;;;;;74.30;67.18;;;;;;;4.08;100.00;102151.19;5121438;28;20058;-92
2022/12/18 03:01:04;;;;;;;76.50;69.05;;;;;;;3.97;100.00;102167.88;5120736;22;20045;-84
2022/12/18 03:03:37;;;;;;;68.78;62.03;;;;;;;4.73;100.00;102165.81;5076914;28;20117;-84
2022/12/18 03:06:09;;;;;;;77.32;69.85;;;;;;;4.35;100.00;102164.66;5076815;28;20048;-84
2022/12/18 03:08:40;;;;;;;75.53;68.70;;;;;;;3.94;100.00;102169.94;5077079;28;20058;-87
2022/12/18 03:11:11;;;;;;;79.68;72.13;;;;;;;3.81;100.00;102180.59;5076560;28;20049;-86
2022/12/18 03:13:43;;;;;;;80.93;72.60;;;;;;;3.70;100.00;102184.13;5076852;28;20049;-84
2022/12/18 03:16:15;;;;;;;80.47;73.05;;;;;;;4.18;100.00;102185.47;5077082;28;20045;-85
2022/12/18 03:18:47;;;;;;;80.43;72.57;;;;;;;3.64;100.00;102190.69;5076423;28;20045;-84
2022/12/18 03:21:15;;;;;;;82.13;74.40;;;;;;;3.62;100.00;102197.03;5076480;28;20110;-87
2022/12/18 03:23:45;;;;;;;77.53;70.20;;;;;;;3.93;100.00;102205.03;5076644;28;20075;-84
2022/12/18 03:26:16;;;;;;;88.53;80.53;;;;;;;4.19;100.00;102210.78;5076097;28;20469;-84
2022/12/18 03:28:48;;;;;;;77.15;70.18;;;;;;;4.33;100.00;102207.84;5076102;28;20053;-83
2022/12/18 03:31:18;;;;;;;71.82;65.05;;;;;;;4.23;100.00;102210.38;5076233;28;20049;-85
2022/12/18 03:33:51;;;;;;;75.90;68.68;;;;;;;4.03;100.00;102206.81;5076470;28;20048;-85
2022/12/18 03:36:18;;;;;;;73.38;66.15;;;;;;;3.65;100.00;102202.88;5076114;28;20113;-86
2022/12/18 03:38:46;;;;;;;80.90;73.60;;;;;;;3.72;100.00;102213.72;5076163;28;20052;-83
2022/12/18 03:41:21;;;;;;;76.03;68.13;;;;;;;3.71;100.00;102222.56;5076151;28;20114;-87
2022/12/18 03:43:53;;;;;;;71.18;64.15;;;;;;;3.57;100.00;102215.81;5075865;28;20041;-83
2022/12/18 03:46:29;;;;;;;76.88;69.53;;;;;;;3.83;100.00;102228.63;5076702;28;20049;-88
2022/12/18 03:49:02;;;;;;;84.50;76.75;;;;;;;3.65;100.00;102229.16;5075818;28;20040;-83
2022/12/18 03:51:36;;;;;;;75.97;68.38;;;;;;;3.41;100.00;102231.13;5076117;28;20071;-84
2022/12/18 03:54:06;;;;;;;81.13;73.45;;;;;;;3.48;100.00;102242.81;5075902;28;20048;-84
2022/12/18 03:56:37;;;;;;;80.63;72.75;;;;;;;3.35;100.00;102242.09;5075925;28;20044;-87
2022/12/18 03:59:06;;;;;;;86.80;78.37;;;;;;;3.13;100.00;102241.16;5059119;28;20049;-88
2022/12/18 04:01:39;;;;;;;77.57;70.15;;;;;;;3.66;100.00;102245.75;5055322;28;20057;-83
2022/12/18 04:04:07;;;;;;;84.05;75.68;;;;;;;3.28;100.00;102256.69;5055747;28;20108;-84
2022/12/18 04:06:37;;;;;;;90.07;81.00;;;;;;;3.15;100.00;102257.66;5055402;28;20055;-85
2022/12/18 04:09:04;;;;;;;82.13;73.53;;;;;;;3.14;100.00;102252.50;5055083;28;20083;-86
2022/12/18 04:11:31;;;;;;;82.18;73.80;;;;;;;4.28;100.00;102262.63;5055086;28;20049;-87
2022/12/18 04:13:59;;;;;;;88.13;79.40;;;;;;;3.33;100.00;102259.78;5055280;28;20048;-84
2022/12/18 04:16:27;;;;;;;82.50;73.88;;;;;;;2.98;100.00;102260.75;5055739;28;20118;-89
2022/12/18 04:21:35;;;;;;;79.25;69.78;;;;;;;2.90;100.00;102266.56;5108494;27;20384;-85
2022/12/18 04:24:02;;;;;;;77.10;69.00;;;;;;;2.83;100.00;102267.19;5091740;28;20040;-87
2022/12/18 04:26:29;;;;;;;77.65;69.40;;;;;;;2.89;100.00;102264.06;5092002;28;20044;-84
2022/12/18 04:28:56;;;;;;;78.72;70.30;;;;;;;2.87;100.00;102268.59;5092321;28;20133;-84
2022/12/18 04:31:23;;;;;;;77.95;69.32;;;;;;;2.85;100.00;102273.97;5092076;28;20052;-84
2022/12/18 04:33:49;;;;;;;82.57;72.70;;;;;;;2.87;100.00;102279.94;5091817;28;20048;-84
2022/12/18 04:36:16;;;;;;;81.22;70.13;;;;;;;2.74;100.00;102294.94;5092207;28;20044;-87
2022/12/18 04:38:45;;;;;;;77.97;69.43;;;;;;;2.56;100.00;102284.06;5091707;28;20105;-84
2022/12/18 04:41:15;;;;;;;78.80;68.72;;;;;;;2.94;100.00;102294.28;5091530;28;20056;-86
2022/12/18 04:43:42;;;;;;;74.78;66.68;;;;;;;2.69;100.00;102290.06;5091842;28;20450;-83
2022/12/18 04:46:09;;;;;;;76.45;68.55;;;;;;;2.65;100.00;102296.47;5091378;28;20478;-83
2022/12/18 04:48:36;;;;;;;78.95;70.82;;;;;;;2.74;100.00;102301.03;5091485;28;20047;-83
2022/12/18 04:51:03;;;;;;;74.13;65.97;;;;;;;2.78;100.00;102301.63;5091516;28;20044;-87
2022/12/18 04:53:30;;;;;;;76.40;67.90;;;;;;;2.74;100.00;102314.16;5091473;28;20501;-88
2022/12/18 04:56:06;;;;;;;78.57;70.25;;;;;;;3.38;100.00;102305.75;5091444;28;20052;-83
2022/12/18 04:58:33;;;;;;;77.80;69.30;;;;;;;2.97;100.00;102311.59;5091446;28;20074;-85
2022/12/18 05:01:03;;;;;;;73.05;65.40;;;;;;;2.87;100.00;102319.28;5091287;28;20044;-83
2022/12/18 05:03:30;;;;;;;79.63;71.00;;;;;;;3.37;100.00;102326.88;5091796;28;20400;-84
2022/12/18 05:05:56;;;;;;;80.30;71.38;;;;;;;2.70;100.00;102333.72;5091482;28;20052;-85
2022/12/18 05:08:23;;;;;;;73.03;65.35;;;;;;;3.20;100.00;102339.50;5091375;28;20130;-85
2022/12/18 05:10:50;;;;;;;76.63;68.68;;;;;;;3.21;100.00;102343.81;5091287;28;20048;-86
2022/12/18 05:13:18;;;;;;;76.07;67.93;;;;;;;2.88;100.00;102346.41;5091467;28;20216;-87
2022/12/18 05:15:52;;;;;;;65.47;58.83;;;;;;;3.06;100.00;102352.06;5090975;28;20117;-84
2022/12/18 05:18:19;;;;;;;75.45;65.75;;;;;;;2.82;100.00;102352.94;5090687;28;20044;-84
2022/12/18 05:20:46;;;;;;;70.25;63.35;;;;;;;3.37;100.00;102358.41;5090677;28;20378;-84
2022/12/18 05:23:12;;;;;;;78.75;67.25;;;;;;;2.92;100.00;102367.03;5091197;28;20044;-84
2022/12/18 05:25:39;;;;;;;79.03;68.07;;;;;;;2.62;100.00;102367.53;5090923;28;20056;-88
2022/12/18 05:28:06;;;;;;;76.30;66.63;;;;;;;2.63;100.00;102357.88;5090575;28;20040;-86
2022/12/18 05:30:35;;;;;;;70.10;63.00;;;;;;;3.08;100.00;102368.50;5090490;28;20055;-84
2022/12/18 05:33:02;;;;;;;72.80;64.28;;;;;;;3.01;100.00;102362.06;5077495;28;20110;-86
2022/12/18 05:35:28;;;;;;;74.72;66.63;;;;;;;2.85;100.00;102370.25;5077194;28;20455;-84
2022/12/18 05:37:55;;;;;;;74.07;65.05;;;;;;;2.76;100.00;102374.41;5077332;28;20121;-84
2022/12/18 05:40:22;;;;;;;78.13;69.78;;;;;;;2.71;100.00;102379.97;5077131;28;20049;-84
2022/12/18 05:42:49;;;;;;;73.63;66.18;;;;;;;3.28;100.00;102380.97;5076806;28;20373;-83
2022/12/18 05:45:15;;;;;;;77.85;68.97;;;;;;;2.59;100.00;102380.06;5077626;28;20040;-84
2022/12/18 05:47:44;;;;;;;79.25;71.28;;;;;;;2.81;100.00;102385.38;5076780;28;20063;-83
2022/12/18 05:50:11;;;;;;;78.75;67.88;;;;;;;3.27;100.00;102384.53;5076181;28;20122;-83
2022/12/18 05:52:37;;;;;;;68.57;60.47;;;;;;;3.10;100.00;102388.44;5077044;28;20078;-83
2022/12/18 05:55:05;;;;;;;73.20;65.32;;;;;;;2.78;100.00;102387.38;5076772;28;20492;-84
2022/12/18 05:57:32;;;;;;;81.97;67.15;;;;;;;2.69;100.00;102388.91;5077476;28;20127;-86
2022/12/18 05:59:58;;;;;;;77.43;64.80;;;;;;;2.64;100.00;102412.03;5076776;28;20121;-84
2022/12/18 06:02:25;;;;;;;71.85;63.00;;;;;;;3.26;100.00;102419.63;5076733;28;20070;-84
2022/12/18 06:04:53;;;;;;;76.22;67.53;;;;;;;2.79;100.00;102410.06;5076910;28;20125;-88
2022/12/18 06:07:20;;;;;;;71.20;63.85;;;;;;;3.12;100.00;102410.19;5076638;28;20048;-87
2022/12/18 06:10:02;;;;;;;83.13;74.18;;;;;;;3.22;100.00;102407.69;5105138;27;20371;-84
2022/12/18 06:12:29;;;;;;;72.75;62.05;;;;;;;2.78;100.00;102429.38;5071676;28;20515;-86
2022/12/18 06:14:56;;;;;;;78.45;70.20;;;;;;;2.70;100.00;102438.66;5071846;28;20087;-84
2022/12/18 06:17:22;;;;;;;77.40;67.55;;;;;;;2.63;100.00;102444.47;5071493;28;20078;-84
2022/12/18 06:19:49;;;;;;;75.68;62.20;;;;;;;2.55;100.00;102438.94;5071687;28;20045;-84
2022/12/18 06:22:16;;;;;;;76.43;64.15;;;;;;;2.69;100.00;102447.50;5071521;28;20044;-85
2022/12/18 06:24:43;;;;;;;74.15;65.25;;;;;;;2.57;100.00;102448.34;5071366;28;20056;-83
2022/12/18 06:27:11;;;;;;;76.93;64.53;;;;;;;2.52;100.00;102445.25;5071250;28;20078;-84
2022/12/18 06:29:38;;;;;;;78.47;66.10;;;;;;;2.57;100.00;102450.16;5071214;28;20057;-84
2022/12/18 06:32:05;;;;;;;65.03;58.00;;;;;;;2.99;100.00;102454.03;5071898;28;20045;-84
2022/12/18 06:34:32;;;;;;;74.20;63.05;;;;;;;2.79;100.00;102452.06;5071209;28;20440;-85
2022/12/18 06:36:59;;;;;;;72.40;64.13;;;;;;;2.97;100.00;102458.59;5071533;28;20404;-84
2022/12/18 06:39:28;;;;;;;69.63;58.25;;;;;;;3.47;100.00;102458.34;5071518;28;20061;-85
2022/12/18 06:41:54;;;;;;;73.97;65.97;;;;;;;2.91;100.00;102472.16;5071391;28;20440;-84
2022/12/18 06:44:23;;;;;;;70.63;61.33;;;;;;;2.83;100.00;102475.34;5071049;28;20060;-84
2022/12/18 06:46:49;;;;;;;77.65;65.72;;;;;;;2.86;100.00;102472.47;5071245;28;20053;-84
2022/12/18 06:49:16;;;;;;;78.30;68.53;;;;;;;2.98;100.00;102482.06;5071141;28;20134;-85
2022/12/18 06:51:43;;;;;;;67.47;60.17;;;;;;;3.13;100.00;102485.34;5071388;28;20151;-84
2022/12/18 06:54:10;;;;;;;73.07;65.07;;;;;;;3.56;100.00;102489.19;5070791;28;20053;-84
2022/12/18 06:56:37;;;;;;;73.82;66.43;;;;;;;3.52;100.00;102493.00;5071804;28;20068;-84
2022/12/18 06:59:03;;;;;;;75.35;67.43;;;;;;;3.28;100.00;102506.19;5071236;28;20052;-84
2022/12/18 07:01:31;;;;;;;78.88;68.22;;;;;;;3.86;100.00;102507.03;5070706;28;20455;-84
2022/12/18 07:03:58;;;;;;;71.72;64.45;;;;;;;3.98;100.00;102511.31;5070698;28;20056;-85
2022/12/18 07:06:26;;;;;;;73.22;65.78;;;;;;;4.23;100.00;102520.75;5070583;28;20455;-87
2022/12/18 07:08:54;;;;;;;76.35;66.35;;;;;;;4.33;100.00;102519.09;5070376;28;20558;-85
2022/12/18 07:11:21;;;;;;;61.45;55.47;;;;;;;4.43;100.00;102521.00;5070456;28;20045;-85
2022/12/18 07:13:48;;;;;;;71.00;60.10;;;;;;;4.17;100.00;102523.88;5070305;28;20044;-84
2022/12/18 07:16:16;;;;;;;66.65;59.35;;;;;;;4.61;100.00;102523.97;5070447;28;20067;-87
2022/12/18 07:18:46;;;;;;;68.63;61.45;;;;;;;4.03;100.00;102527.59;5070580;28;20113;-87
2022/12/18 07:21:15;;;;;;;67.05;60.08;;;;;;;4.63;100.00;102524.66;5058927;28;20527;-85
2022/12/18 07:23:42;;;;;;;66.43;59.28;;;;;;;5.11;100.00;102526.91;5057066;28;20053;-86
2022/12/18 07:26:11;;;;;;;62.70;56.67;;;;;;;5.57;100.00;102533.63;5057014;28;20122;-86
2022/12/18 07:28:40;;;;;;;66.75;59.50;;;;;;;5.65;100.00;102541.75;5056998;28;20053;-84
2022/12/18 07:31:09;;;;;;;63.60;56.92;;;;;;;4.90;100.00;102540.03;5057586;28;20060;-84
2022/12/18 07:33:36;;;;;;;67.80;60.50;;;;;;;5.22;100.00;102546.16;5056749;28;20448;-85
2022/12/18 07:36:07;;;;;;;66.15;58.97;;;;;;;4.41;100.00;102552.69;5057177;28;20546;-87
2022/12/18 07:38:35;;;;;;;71.05;63.58;;;;;;;5.40;100.00;102559.63;5057011;28;20617;-84
2022/12/18 07:41:02;;;;;;;74.20;66.78;;;;;;;4.32;100.00;102567.38;5056006;28;20103;-84
2022/12/18 07:43:29;;;;;;;73.85;65.82;;;;;;;5.42;100.00;102559.50;5055741;28;20485;-84
2022/12/18 07:45:56;;;;;;;64.47;58.88;;;;;;;5.26;100.00;102567.81;5055826;28;20049;-86
2022/12/18 07:48:23;;;;;;;65.68;59.08;;;;;;;4.85;100.00;102560.66;5056842;28;20122;-85
2022/12/18 07:50:49;;;;;;;74.78;67.55;;;;;;;5.29;100.00;102572.81;5057437;28;20115;-85
2022/12/18 07:53:18;;;;;;;74.93;66.72;;;;;;;5.59;100.00;102574.72;5056806;28;20079;-84
2022/12/18 07:55:44;;;;;;;71.05;63.70;;;;;;;5.38;100.00;102585.25;5056524;28;20110;-84
2022/12/18 07:58:11;;;;;;;66.40;59.97;;;;;;;5.54;100.00;102589.25;5056806;28;20057;-85
2022/12/18 08:00:38;;;;;;;59.35;54.22;;;;;;;5.60;100.00;102581.69;5056285;28;20057;-84
2022/12/18 08:03:05;;;;;;;70.72;63.42;;;;;;;6.51;100.00;102590.69;5056638;28;20090;-85
2022/12/18 08:05:31;;;;;;;65.18;58.92;;;;;;;4.77;100.00;102590.22;5056430;28;20106;-84
2022/12/18 08:07:59;;;;;;;66.45;60.35;;;;;;;6.09;100.00;102588.13;5055862;28;20052;-87
2022/12/18 08:10:27;;;;;;;60.90;55.55;;;;;;;6.54;100.00;102582.50;5056155;28;20049;-84
2022/12/18 08:12:54;;;;;;;62.40;56.35;;;;;;;6.07;100.00;102586.59;5056475;28;20049;-84
2022/12/18 08:15:21;;;;;;;68.20;61.30;;;;;;;4.94;100.00;102594.97;5056222;28;20179;-84
2022/12/18 08:17:47;;;;;;;66.50;60.00;;;;;;;4.49;100.00;102599.47;5056152;28;20107;-86
2022/12/18 08:20:14;;;;;;;66.15;58.13;;;;;;;4.27;100.00;102592.41;5056531;28;20075;-84
2022/12/18 08:22:42;;;;;;;70.38;63.08;;;;;;;4.10;100.00;102589.28;5055962;28;20435;-85
2022/12/18 08:25:09;;;;;;;69.50;62.15;;;;;;;4.40;100.00;102587.84;5055989;28;20053;-83
2022/12/18 08:27:37;;;;;;;60.33;55.00;;;;;;;4.77;100.00;102590.22;5055997;28;20056;-83
2022/12/18 08:30:05;;;;;;;69.35;62.22;;;;;;;4.71;100.00;102601.22;5055538;28;20045;-84
2022/12/18 08:32:32;;;;;;;69.05;61.70;;;;;;;5.18;100.00;102593.97;5055092;28;20048;-84
2022/12/18 08:34:59;;;;;;;69.60;62.50;;;;;;;4.57;100.00;102597.06;5055914;28;20079;-84
2022/12/18 08:37:26;;;;;;;65.68;58.75;;;;;;;4.51;100.00;102595.75;5055707;28;20485;-86
2022/12/18 08:39:53;;;;;;;67.38;60.70;;;;;;;4.64;100.00;102597.44;5055733;28;20056;-83
2022/12/18 08:45:05;;;;;;;64.60;57.72;;;;;;;4.36;100.00;102612.75;5055804;28;20128;-83
2022/12/18 08:47:32;;;;;;;66.53;59.70;;;;;;;4.71;100.00;102617.03;5055851;28;20056;-85
2022/12/18 08:50:15;;;;;;;70.95;63.33;;;;;;;4.79;100.00;102610.19;5091824;27;20899;-85
2022/12/18 08:52:41;;;;;;;68.63;61.55;;;;;;;4.31;100.00;102604.34;5091834;28;20139;-87
2022/12/18 08:55:10;;;;;;;71.50;62.13;;;;;;;4.28;100.00;102607.22;5092054;28;20040;-84
2022/12/18 08:57:36;;;;;;;70.18;62.63;;;;;;;4.36;100.00;102596.97;5092072;28;20108;-87
2022/12/18 09:00:04;;;;;;;64.15;57.65;;;;;;;5.06;100.00;102601.06;5091838;28;20404;-85
2022/12/18 09:02:30;;;;;;;70.38;63.20;;;;;;;4.85;100.00;102598.34;5091541;28;20044;-84
2022/12/18 09:04:57;;;;;;;74.07;66.18;;;;;;;4.52;100.00;102615.84;5091659;28;20476;-86
2022/12/18 09:07:25;;;;;;;66.20;59.55;;;;;;;5.01;100.00;102608.50;5091577;28;20048;-87
2022/12/18 09:12:55;;;;;;;70.70;62.88;;;;;;;4.13;100.00;102606.59;5112345;27;20402;-86
2022/12/18 09:15:22;;;;;;;66.72;60.03;;;;;;;4.36;100.00;102612.75;5111919;28;20048;-84
2022/12/18 09:17:49;;;;;;;64.43;57.75;;;;;;;4.48;100.00;102618.81;5112285;28;20473;-84
2022/12/18 09:20:16;;;;;;;66.50;59.63;;;;;;;5.09;100.00;102613.97;5112148;28;20122;-84
2022/12/18 09:22:43;;;;;;;65.97;59.20;;;;;;;4.58;100.00;102618.00;5112024;28;20468;-83
2022/12/18 09:25:10;;;;;;;63.60;57.00;;;;;;;4.52;100.00;102609.75;5112132;28;20468;-88
2022/12/18 09:27:37;;;;;;;66.47;59.95;;;;;;;5.01;100.00;102614.59;5112112;28;20043;-85
2022/12/18 09:30:07;;;;;;;68.70;61.85;;;;;;;4.83;100.00;102611.63;5112468;28;20051;-84
2022/12/18 09:32:33;;;;;;;65.25;57.97;;;;;;;4.62;100.00;102615.94;5111599;28;20391;-83
2022/12/18 09:35:01;;;;;;;72.10;64.07;;;;;;;4.58;100.00;102615.38;5112186;28;20458;-86
2022/12/18 09:37:28;;;;;;;68.85;61.65;;;;;;;5.01;100.00;102613.75;5111778;28;20113;-84
2022/12/18 09:39:54;;;;;;;68.00;60.65;;;;;;;4.50;100.00;102609.03;5111826;28;20043;-84
2022/12/18 09:42:22;;;;;;;69.50;61.92;;;;;;;4.88;100.00;102607.81;5112247;28;20112;-84
2022/12/18 09:44:53;;;;;;;68.20;60.28;;;;;;;4.87;100.00;102606.97;5111680;28;20164;-85
2022/12/18 09:47:25;;;;;;;64.22;57.65;;;;;;;5.19;100.00;102600.91;5111875;28;20055;-83
2022/12/18 09:49:55;;;;;;;63.55;56.65;;;;;;;4.34;100.00;102591.78;5111737;28;20116;-86
2022/12/18 09:52:27;;;;;;;64.10;57.78;;;;;;;5.07;100.00;102605.34;5111246;28;20043;-84
2022/12/18 09:54:57;;;;;;;68.70;60.95;;;;;;;5.36;100.00;102597.72;5111417;28;20051;-85
2022/12/18 09:57:25;;;;;;;71.32;63.90;;;;;;;5.13;100.00;102596.13;5111539;28;20048;-84
2022/12/18 09:59:57;;;;;;;62.90;56.42;;;;;;;5.34;100.00;102610.19;5111372;28;20040;-85
2022/12/18 10:02:27;;;;;;;67.03;59.95;;;;;;;5.28;100.00;102610.69;5111469;28;20361;-84
2022/12/18 10:05:05;;;;;;;58.78;53.65;;;;;;;5.57;100.00;102610.94;5111772;28;20456;-84
2022/12/18 10:07:43;;;;;;;63.15;56.55;;;;;;;5.70;100.00;102608.13;5111194;28;20132;-87
2022/12/18 10:10:22;;;;;;;59.60;53.53;;;;;;;5.25;100.00;102611.78;5110894;28;20513;-84
2022/12/18 10:12:57;;;;;;;64.68;57.63;;;;;;;4.65;100.00;102613.06;5110719;28;20059;-84
2022/12/18 10:15:31;;;;;;;66.13;59.28;;;;;;;4.62;100.00;102608.06;5111123;28;20465;-85
2022/12/18 10:18:08;;;;;;;65.30;58.58;;;;;;;4.59;100.00;102618.81;5111155;28;20059;-84
2022/12/18 10:20:41;;;;;;;67.65;60.35;;;;;;;4.53;100.00;102621.94;5111158;28;20479;-87
2022/12/18 10:23:18;;;;;;;67.97;60.60;;;;;;;4.88;100.00;102624.44;5103710;28;20052;-84
2022/12/18 10:25:54;;;;;;;71.30;63.92;;;;;;;4.94;100.00;102623.94;5097618;28;20044;-85
2022/12/18 10:28:21;;;;;;;72.55;64.70;;;;;;;4.96;100.00;102632.56;5097278;28;20143;-86
2022/12/18 10:35:59;;;;;;;69.13;62.42;;;;;;;4.54;100.00;102637.63;5112223;27;20453;-84
2022/12/18 10:38:28;;;;;;;72.85;63.08;;;;;;;4.63;100.00;102630.81;5112327;28;20403;-86
2022/12/18 10:40:56;;;;;;;70.90;62.75;;;;;;;4.52;100.00;102631.63;5112288;28;20109;-83
2022/12/18 10:43:26;;;;;;;79.20;66.60;;;;;;;4.56;100.00;102637.50;5112183;28;20048;-83
2022/12/18 10:46:03;;;;;;;62.33;56.42;;;;;;;4.56;100.00;102643.59;5112058;28;20453;-83
2022/12/18 10:48:31;;;;;;;66.38;59.50;;;;;;;4.47;100.00;102646.94;5111837;28;20138;-83
2022/12/18 10:51:01;;;;;;;71.63;62.63;;;;;;;4.51;100.00;102642.28;5112159;28;20113;-85
2022/12/18 10:53:30;;;;;;;68.22;61.17;;;;;;;4.20;100.00;102652.53;5111867;28;20109;-83
2022/12/18 10:56:04;;;;;;;70.78;61.83;;;;;;;4.26;100.00;102653.84;5111727;28;20054;-85
2022/12/18 10:58:32;;;;;;;71.88;63.95;;;;;;;4.36;100.00;102663.56;5112123;28;20103;-87
2022/12/18 11:01:05;;;;;;;75.60;64.60;;;;;;;4.25;100.00;102670.59;5112165;28;20551;-84
2022/12/18 11:03:36;;;;;;;80.57;65.93;;;;;;;4.29;100.00;102658.88;5111737;28;20052;-84
2022/12/18 11:06:06;;;;;;;84.15;66.07;;;;;;;4.58;100.00;102664.53;5112007;28;20048;-85
2022/12/18 11:08:34;;;;;;;75.72;66.63;;;;;;;4.39;100.00;102659.88;5111724;28;20043;-84
2022/12/18 11:11:01;;;;;;;130.05;82.10;;;;;;;4.31;100.00;102662.22;5111991;28;20462;-84
2022/12/18 11:13:30;;;;;;;94.82;71.00;;;;;;;4.52;100.00;102660.59;5111529;28;20052;-84
2022/12/18 11:15:56;;;;;;;93.80;74.50;;;;;;;4.43;100.00;102660.47;5111375;28;20549;-84
2022/12/18 11:18:29;;;;;;;125.25;90.78;;;;;;;4.75;100.00;102668.47;5111776;28;20112;-84
2022/12/18 11:20:58;;;;;;;77.47;64.80;;;;;;;4.57;100.00;102665.50;5111529;28;20055;-87
2022/12/18 11:23:27;;;;;;;80.85;66.55;;;;;;;4.56;100.00;102672.53;5111689;28;20116;-85
2022/12/18 11:26:00;;;;;;;73.95;65.47;;;;;;;4.57;100.00;102670.78;5111441;28;20048;-86
2022/12/18 11:28:30;;;;;;;72.78;64.85;;;;;;;4.25;100.00;102665.34;5111474;28;20056;-82
2022/12/18 11:31:22;;;;;;;76.35;66.65;;;;;;;4.34;100.00;102676.00;5111318;28;20056;-85
2022/12/18 11:34:04;;;;;;;76.47;65.20;;;;;;;4.71;100.00;102672.31;5111173;28;20108;-84
2022/12/18 11:36:38;;;;;;;76.35;67.30;;;;;;;4.62;100.00;102673.84;5111337;28;20116;-83